Terminal Aerodrome Forecast
Issued by NWS

Home | Current Version | Previous Version | Text Only | Print | Product List | Glossary On
Versions: 1 2 3 4 5 6 7 8 9 10 11 12 13 14 15 16 17 18 19 20
521
FTPA31 PHFO 251124
TAFHLI
TAF
PHLI 251124Z 2512/2612 06006KT P6SM VCSH FEW020 BKN035
     FM252000 07013KT P6SM FEW030 SCT045
     FM260500 06010KT P6SM SCT030 BKN045=

USA.gov is the U.S. government's official web portal to all federal, state and local government web resources and services.